sensor_id;sensor_type;location;lat;lon;timestamp;temperature;humidity
52034;DHT22;38045;52.988;6.536;2023-08-01T00:00:32;16.40;99.90
52034;DHT22;38045;52.988;6.536;2023-08-01T00:02:59;16.30;99.90
52034;DHT22;38045;52.988;6.536;2023-08-01T00:05:24;16.30;99.90
52034;DHT22;38045;52.988;6.536;2023-08-01T00:07:51;16.30;99.90
52034;DHT22;38045;52.988;6.536;2023-08-01T00:10:16;16.30;99.90
52034;DHT22;38045;52.988;6.536;2023-08-01T00:12:42;16.30;99.90
52034;DHT22;38045;52.988;6.536;2023-08-01T00:15:08;16.30;99.90
52034;DHT22;38045;52.988;6.536;2023-08-01T00:17:34;16.30;99.90
52034;DHT22;38045;52.988;6.536;2023-08-01T00:20:02;16.30;99.90
52034;DHT22;38045;52.988;6.536;2023-08-01T00:22:27;16.30;99.90
52034;DHT22;38045;52.988;6.536;2023-08-01T00:24:53;16.30;99.90
52034;DHT22;38045;52.988;6.536;2023-08-01T00:27:19;16.30;99.90
52034;DHT22;38045;52.988;6.536;2023-08-01T00:29:45;16.30;99.90
52034;DHT22;38045;52.988;6.536;2023-08-01T00:32:10;16.30;99.90
52034;DHT22;38045;52.988;6.536;2023-08-01T00:34:36;16.30;99.90
52034;DHT22;38045;52.988;6.536;2023-08-01T00:37:02;16.30;99.90
52034;DHT22;38045;52.988;6.536;2023-08-01T00:39:28;16.30;99.90
52034;DHT22;38045;52.988;6.536;2023-08-01T00:41:53;16.20;99.90
52034;DHT22;38045;52.988;6.536;2023-08-01T00:44:19;16.00;99.90
52034;DHT22;38045;52.988;6.536;2023-08-01T00:46:45;15.80;99.90
52034;DHT22;38045;52.988;6.536;2023-08-01T00:49:10;15.60;99.90
52034;DHT22;38045;52.988;6.536;2023-08-01T00:51:36;15.60;99.90
52034;DHT22;38045;52.988;6.536;2023-08-01T00:54:02;15.50;99.90
52034;DHT22;38045;52.988;6.536;2023-08-01T00:56:27;15.50;99.90
52034;DHT22;38045;52.988;6.536;2023-08-01T00:58:53;15.50;99.90
52034;DHT22;38045;52.988;6.536;2023-08-01T01:01:19;15.40;99.90
52034;DHT22;38045;52.988;6.536;2023-08-01T01:03:45;15.40;99.90
52034;DHT22;38045;52.988;6.536;2023-08-01T01:08:59;15.40;99.90
52034;DHT22;38045;52.988;6.536;2023-08-01T01:11:24;15.40;99.90
52034;DHT22;38045;52.988;6.536;2023-08-01T01:13:50;15.40;99.90
52034;DHT22;38045;52.988;6.536;2023-08-01T01:16:19;15.40;99.90
52034;DHT22;38045;52.988;6.536;2023-08-01T01:18:45;15.40;99.90
52034;DHT22;38045;52.988;6.536;2023-08-01T01:21:11;15.40;99.90
52034;DHT22;38045;52.988;6.536;2023-08-01T01:23:37;15.40;99.90
52034;DHT22;38045;52.988;6.536;2023-08-01T01:26:04;15.40;99.90
52034;DHT22;38045;52.988;6.536;2023-08-01T01:28:32;15.30;99.90
52034;DHT22;38045;52.988;6.536;2023-08-01T01:30:58;15.30;99.90
52034;DHT22;38045;52.988;6.536;2023-08-01T01:33:24;15.40;99.90
52034;DHT22;38045;52.988;6.536;2023-08-01T01:35:50;15.30;99.90
52034;DHT22;38045;52.988;6.536;2023-08-01T01:38:16;15.40;99.90
52034;DHT22;38045;52.988;6.536;2023-08-01T01:40:42;15.40;99.90
52034;DHT22;38045;52.988;6.536;2023-08-01T01:43:07;15.40;99.90
52034;DHT22;38045;52.988;6.536;2023-08-01T01:45:33;15.40;99.90
52034;DHT22;38045;52.988;6.536;2023-08-01T01:47:59;15.40;99.90
52034;DHT22;38045;52.988;6.536;2023-08-01T01:50:24;15.50;99.90
52034;DHT22;38045;52.988;6.536;2023-08-01T01:52:50;15.50;99.90
52034;DHT22;38045;52.988;6.536;2023-08-01T01:55:15;15.40;99.90
52034;DHT22;38045;52.988;6.536;2023-08-01T01:57:41;15.50;99.90
52034;DHT22;38045;52.988;6.536;2023-08-01T02:00:07;15.50;99.90
52034;DHT22;38045;52.988;6.536;2023-08-01T02:02:36;15.50;99.90
52034;DHT22;38045;52.988;6.536;2023-08-01T02:05:02;15.60;99.90
52034;DHT22;38045;52.988;6.536;2023-08-01T02:07:29;15.50;99.90
52034;DHT22;38045;52.988;6.536;2023-08-01T02:09:55;15.50;99.90
52034;DHT22;38045;52.988;6.536;2023-08-01T02:12:21;15.50;99.90
52034;DHT22;38045;52.988;6.536;2023-08-01T02:14:46;15.50;99.90
52034;DHT22;38045;52.988;6.536;2023-08-01T02:17:12;15.50;99.90
52034;DHT22;38045;52.988;6.536;2023-08-01T02:19:38;15.50;99.90
52034;DHT22;38045;52.988;6.536;2023-08-01T02:22:04;15.50;99.90
52034;DHT22;38045;52.988;6.536;2023-08-01T02:24:30;15.50;99.90
52034;DHT22;38045;52.988;6.536;2023-08-01T02:26:55;15.50;99.90
52034;DHT22;38045;52.988;6.536;2023-08-01T02:29:21;15.40;99.90
52034;DHT22;38045;52.988;6.536;2023-08-01T02:31:47;15.50;99.90
52034;DHT22;38045;52.988;6.536;2023-08-01T02:34:12;15.40;99.90
52034;DHT22;38045;52.988;6.536;2023-08-01T02:36:38;15.40;99.90
52034;DHT22;38045;52.988;6.536;2023-08-01T02:39:06;15.30;99.90
52034;DHT22;38045;52.988;6.536;2023-08-01T02:41:32;15.30;99.90
52034;DHT22;38045;52.988;6.536;2023-08-01T02:43:57;15.20;99.90
52034;DHT22;38045;52.988;6.536;2023-08-01T02:46:23;15.30;99.90
52034;DHT22;38045;52.988;6.536;2023-08-01T02:48:49;15.20;99.90
52034;DHT22;38045;52.988;6.536;2023-08-01T02:51:14;15.20;99.90
52034;DHT22;38045;52.988;6.536;2023-08-01T02:53:40;15.20;99.90
52034;DHT22;38045;52.988;6.536;2023-08-01T02:56:07;15.20;99.90
52034;DHT22;38045;52.988;6.536;2023-08-01T02:58:34;15.20;99.90
52034;DHT22;38045;52.988;6.536;2023-08-01T03:00:59;15.20;99.90
52034;DHT22;38045;52.988;6.536;2023-08-01T03:03:26;15.20;99.90
52034;DHT22;38045;52.988;6.536;2023-08-01T03:05:52;15.20;99.90
52034;DHT22;38045;52.988;6.536;2023-08-01T03:08:18;15.20;99.90
52034;DHT22;38045;52.988;6.536;2023-08-01T03:10:45;15.20;99.90
52034;DHT22;38045;52.988;6.536;2023-08-01T03:13:10;15.20;99.90
52034;DHT22;38045;52.988;6.536;2023-08-01T03:15:37;15.30;99.90
52034;DHT22;38045;52.988;6.536;2023-08-01T03:18:02;15.30;99.90
52034;DHT22;38045;52.988;6.536;2023-08-01T03:20:29;15.30;99.90
52034;DHT22;38045;52.988;6.536;2023-08-01T03:22:55;15.30;99.90
52034;DHT22;38045;52.988;6.536;2023-08-01T03:25:20;15.30;99.90
52034;DHT22;38045;52.988;6.536;2023-08-01T03:27:46;15.30;99.90
52034;DHT22;38045;52.988;6.536;2023-08-01T03:30:12;15.30;99.90
52034;DHT22;38045;52.988;6.536;2023-08-01T03:32:37;15.30;99.90
52034;DHT22;38045;52.988;6.536;2023-08-01T03:35:06;15.30;99.90
52034;DHT22;38045;52.988;6.536;2023-08-01T03:37:32;15.20;99.90
52034;DHT22;38045;52.988;6.536;2023-08-01T03:39:58;15.20;99.90
52034;DHT22;38045;52.988;6.536;2023-08-01T03:42:23;15.20;99.90
52034;DHT22;38045;52.988;6.536;2023-08-01T03:44:49;15.10;99.90
52034;DHT22;38045;52.988;6.536;2023-08-01T03:47:15;15.10;99.90
52034;DHT22;38045;52.988;6.536;2023-08-01T03:49:40;15.10;99.90
52034;DHT22;38045;52.988;6.536;2023-08-01T03:52:06;15.10;99.90
52034;DHT22;38045;52.988;6.536;2023-08-01T03:54:32;15.10;99.90
52034;DHT22;38045;52.988;6.536;2023-08-01T03:56:57;15.00;99.90
52034;DHT22;38045;52.988;6.536;2023-08-01T03:59:23;15.00;99.90
52034;DHT22;38045;52.988;6.536;2023-08-01T04:01:49;14.90;99.90
52034;DHT22;38045;52.988;6.536;2023-08-01T04:04:16;15.00;99.90
52034;DHT22;38045;52.988;6.536;2023-08-01T04:06:42;14.90;99.90
52034;DHT22;38045;52.988;6.536;2023-08-01T04:09:08;14.90;99.90
52034;DHT22;38045;52.988;6.536;2023-08-01T04:11:33;14.90;99.90
52034;DHT22;38045;52.988;6.536;2023-08-01T04:13:59;15.00;99.90
52034;DHT22;38045;52.988;6.536;2023-08-01T04:16:24;14.80;99.90
52034;DHT22;38045;52.988;6.536;2023-08-01T04:18:50;14.90;99.90
52034;DHT22;38045;52.988;6.536;2023-08-01T04:21:16;14.80;99.90
52034;DHT22;38045;52.988;6.536;2023-08-01T04:23:41;14.90;99.90
52034;DHT22;38045;52.988;6.536;2023-08-01T04:26:07;14.80;99.90
52034;DHT22;38045;52.988;6.536;2023-08-01T04:28:33;14.80;99.90
52034;DHT22;38045;52.988;6.536;2023-08-01T04:30:59;14.80;99.90
52034;DHT22;38045;52.988;6.536;2023-08-01T04:33:25;14.80;99.90
52034;DHT22;38045;52.988;6.536;2023-08-01T04:35:50;14.70;99.90
52034;DHT22;38045;52.988;6.536;2023-08-01T04:38:16;14.80;99.90
52034;DHT22;38045;52.988;6.536;2023-08-01T04:40:42;14.70;99.90
52034;DHT22;38045;52.988;6.536;2023-08-01T04:43:08;14.70;99.90
52034;DHT22;38045;52.988;6.536;2023-08-01T04:45:33;14.70;99.90
52034;DHT22;38045;52.988;6.536;2023-08-01T04:47:59;14.60;99.90
52034;DHT22;38045;52.988;6.536;2023-08-01T04:50:24;14.60;99.90
52034;DHT22;38045;52.988;6.536;2023-08-01T04:52:50;14.60;99.90
52034;DHT22;38045;52.988;6.536;2023-08-01T04:55:16;14.60;99.90
52034;DHT22;38045;52.988;6.536;2023-08-01T04:57:41;14.50;99.90
52034;DHT22;38045;52.988;6.536;2023-08-01T05:00:09;14.50;99.90
52034;DHT22;38045;52.988;6.536;2023-08-01T05:02:35;14.60;99.90
52034;DHT22;38045;52.988;6.536;2023-08-01T05:05:01;14.60;99.90
52034;DHT22;38045;52.988;6.536;2023-08-01T05:07:27;14.60;99.90
52034;DHT22;38045;52.988;6.536;2023-08-01T05:09:55;14.60;99.90
52034;DHT22;38045;52.988;6.536;2023-08-01T05:12:20;14.60;99.90
52034;DHT22;38045;52.988;6.536;2023-08-01T05:14:46;14.60;99.90
52034;DHT22;38045;52.988;6.536;2023-08-01T05:17:12;14.60;99.90
52034;DHT22;38045;52.988;6.536;2023-08-01T05:19:37;14.60;99.90
52034;DHT22;38045;52.988;6.536;2023-08-01T05:22:03;14.60;99.90
52034;DHT22;38045;52.988;6.536;2023-08-01T05:24:29;14.70;99.90
52034;DHT22;38045;52.988;6.536;2023-08-01T05:26:54;14.80;99.90
52034;DHT22;38045;52.988;6.536;2023-08-01T05:29:20;14.80;99.90
52034;DHT22;38045;52.988;6.536;2023-08-01T05:31:46;14.90;99.90
52034;DHT22;38045;52.988;6.536;2023-08-01T05:34:11;14.90;99.90
52034;DHT22;38045;52.988;6.536;2023-08-01T05:36:37;14.90;99.90
52034;DHT22;38045;52.988;6.536;2023-08-01T05:39:03;15.00;99.90
52034;DHT22;38045;52.988;6.536;2023-08-01T05:41:29;15.00;99.90
52034;DHT22;38045;52.988;6.536;2023-08-01T05:43:55;15.00;99.90
52034;DHT22;38045;52.988;6.536;2023-08-01T05:46:20;15.10;99.90
52034;DHT22;38045;52.988;6.536;2023-08-01T05:48:46;15.10;99.90
52034;DHT22;38045;52.988;6.536;2023-08-01T05:51:12;15.20;99.90
52034;DHT22;38045;52.988;6.536;2023-08-01T05:53:37;15.20;99.90
52034;DHT22;38045;52.988;6.536;2023-08-01T05:56:03;15.30;99.90
52034;DHT22;38045;52.988;6.536;2023-08-01T05:58:30;15.30;99.90
52034;DHT22;38045;52.988;6.536;2023-08-01T06:00:56;15.40;99.90
52034;DHT22;38045;52.988;6.536;2023-08-01T06:03:22;15.40;99.90
52034;DHT22;38045;52.988;6.536;2023-08-01T06:05:47;15.40;99.90
52034;DHT22;38045;52.988;6.536;2023-08-01T06:08:13;15.40;99.90
52034;DHT22;38045;52.988;6.536;2023-08-01T06:10:41;15.40;99.90
52034;DHT22;38045;52.988;6.536;2023-08-01T06:13:07;15.40;99.90
52034;DHT22;38045;52.988;6.536;2023-08-01T06:15:32;15.50;99.90
52034;DHT22;38045;52.988;6.536;2023-08-01T06:17:58;15.50;99.90
52034;DHT22;38045;52.988;6.536;2023-08-01T06:20:24;15.60;99.90
52034;DHT22;38045;52.988;6.536;2023-08-01T06:22:49;15.50;99.90
52034;DHT22;38045;52.988;6.536;2023-08-01T06:25:15;15.50;99.90
52034;DHT22;38045;52.988;6.536;2023-08-01T06:27:41;15.60;99.90
52034;DHT22;38045;52.988;6.536;2023-08-01T06:30:07;15.50;99.90
52034;DHT22;38045;52.988;6.536;2023-08-01T06:32:33;15.50;99.90
52034;DHT22;38045;52.988;6.536;2023-08-01T06:34:58;15.50;99.90
52034;DHT22;38045;52.988;6.536;2023-08-01T06:37:24;15.50;99.90
52034;DHT22;38045;52.988;6.536;2023-08-01T06:39:50;15.60;99.90
52034;DHT22;38045;52.988;6.536;2023-08-01T06:42:15;15.60;99.90
52034;DHT22;38045;52.988;6.536;2023-08-01T06:44:41;15.60;99.90
52034;DHT22;38045;52.988;6.536;2023-08-01T06:47:07;15.60;99.90
52034;DHT22;38045;52.988;6.536;2023-08-01T06:49:33;15.50;99.90
52034;DHT22;38045;52.988;6.536;2023-08-01T06:51:58;15.70;99.90
52034;DHT22;38045;52.988;6.536;2023-08-01T06:54:24;15.60;99.90
52034;DHT22;38045;52.988;6.536;2023-08-01T06:56:50;15.60;99.90
52034;DHT22;38045;52.988;6.536;2023-08-01T06:59:15;15.70;99.90
52034;DHT22;38045;52.988;6.536;2023-08-01T07:01:42;15.80;99.90
52034;DHT22;38045;52.988;6.536;2023-08-01T07:04:12;15.90;99.90
52034;DHT22;38045;52.988;6.536;2023-08-01T07:06:39;15.90;99.90
52034;DHT22;38045;52.988;6.536;2023-08-01T07:09:05;16.00;99.90
52034;DHT22;38045;52.988;6.536;2023-08-01T07:11:31;16.00;99.90
52034;DHT22;38045;52.988;6.536;2023-08-01T07:13:56;16.10;99.90
52034;DHT22;38045;52.988;6.536;2023-08-01T07:16:22;16.20;99.90
52034;DHT22;38045;52.988;6.536;2023-08-01T07:18:47;16.00;99.90
52034;DHT22;38045;52.988;6.536;2023-08-01T07:21:16;16.00;99.90
52034;DHT22;38045;52.988;6.536;2023-08-01T07:23:43;16.10;99.90
52034;DHT22;38045;52.988;6.536;2023-08-01T07:26:09;16.00;99.90
52034;DHT22;38045;52.988;6.536;2023-08-01T07:28:35;16.00;99.90
52034;DHT22;38045;52.988;6.536;2023-08-01T07:31:10;16.00;99.90
52034;DHT22;38045;52.988;6.536;2023-08-01T07:33:35;16.00;99.90
52034;DHT22;38045;52.988;6.536;2023-08-01T07:36:01;16.10;99.90
52034;DHT22;38045;52.988;6.536;2023-08-01T07:38:27;16.00;99.90
52034;DHT22;38045;52.988;6.536;2023-08-01T07:40:53;16.00;99.90
52034;DHT22;38045;52.988;6.536;2023-08-01T07:43:19;16.00;99.90
52034;DHT22;38045;52.988;6.536;2023-08-01T07:45:45;16.00;99.90
52034;DHT22;38045;52.988;6.536;2023-08-01T07:48:11;16.00;99.90
52034;DHT22;38045;52.988;6.536;2023-08-01T07:50:36;16.00;99.90
52034;DHT22;38045;52.988;6.536;2023-08-01T07:53:02;16.00;99.90
52034;DHT22;38045;52.988;6.536;2023-08-01T07:55:28;16.00;99.90
52034;DHT22;38045;52.988;6.536;2023-08-01T07:57:53;16.00;99.90
52034;DHT22;38045;52.988;6.536;2023-08-01T08:00:19;16.10;99.90
52034;DHT22;38045;52.988;6.536;2023-08-01T08:02:45;16.10;99.90
52034;DHT22;38045;52.988;6.536;2023-08-01T08:05:11;16.10;99.90
52034;DHT22;38045;52.988;6.536;2023-08-01T08:07:37;16.10;99.90
52034;DHT22;38045;52.988;6.536;2023-08-01T08:10:06;16.00;99.90
52034;DHT22;38045;52.988;6.536;2023-08-01T08:12:32;16.10;99.90
52034;DHT22;38045;52.988;6.536;2023-08-01T08:14:58;16.10;99.90
52034;DHT22;38045;52.988;6.536;2023-08-01T08:17:23;16.00;99.90
52034;DHT22;38045;52.988;6.536;2023-08-01T08:19:49;16.00;99.90
52034;DHT22;38045;52.988;6.536;2023-08-01T08:22:15;15.90;99.90
52034;DHT22;38045;52.988;6.536;2023-08-01T08:24:40;16.00;99.90
52034;DHT22;38045;52.988;6.536;2023-08-01T08:27:06;15.90;99.90
52034;DHT22;38045;52.988;6.536;2023-08-01T08:29:32;15.90;99.90
52034;DHT22;38045;52.988;6.536;2023-08-01T08:31:58;15.90;99.90
52034;DHT22;38045;52.988;6.536;2023-08-01T08:34:24;15.80;99.90
52034;DHT22;38045;52.988;6.536;2023-08-01T08:36:50;15.80;99.90
52034;DHT22;38045;52.988;6.536;2023-08-01T08:39:16;15.80;99.90
52034;DHT22;38045;52.988;6.536;2023-08-01T08:41:47;15.80;99.90
52034;DHT22;38045;52.988;6.536;2023-08-01T08:44:15;15.80;99.90
52034;DHT22;38045;52.988;6.536;2023-08-01T08:46:43;15.80;99.90
52034;DHT22;38045;52.988;6.536;2023-08-01T08:49:10;15.80;99.90
52034;DHT22;38045;52.988;6.536;2023-08-01T08:51:37;15.70;99.90
52034;DHT22;38045;52.988;6.536;2023-08-01T08:54:07;15.80;99.90
52034;DHT22;38045;52.988;6.536;2023-08-01T08:56:34;15.80;99.90
52034;DHT22;38045;52.988;6.536;2023-08-01T08:59:00;15.80;99.90
52034;DHT22;38045;52.988;6.536;2023-08-01T09:01:26;15.80;99.90
52034;DHT22;38045;52.988;6.536;2023-08-01T09:03:52;15.90;99.90
52034;DHT22;38045;52.988;6.536;2023-08-01T09:06:32;15.90;99.90
52034;DHT22;38045;52.988;6.536;2023-08-01T09:09:09;16.00;99.90
52034;DHT22;38045;52.988;6.536;2023-08-01T09:11:42;16.00;99.90
52034;DHT22;38045;52.988;6.536;2023-08-01T09:14:09;16.00;99.90
52034;DHT22;38045;52.988;6.536;2023-08-01T09:16:35;15.90;99.90
52034;DHT22;38045;52.988;6.536;2023-08-01T09:19:01;15.80;99.90
52034;DHT22;38045;52.988;6.536;2023-08-01T09:21:32;15.80;99.90
52034;DHT22;38045;52.988;6.536;2023-08-01T09:24:11;15.90;99.90
52034;DHT22;38045;52.988;6.536;2023-08-01T09:26:38;15.90;99.90
52034;DHT22;38045;52.988;6.536;2023-08-01T09:29:04;15.90;99.90
52034;DHT22;38045;52.988;6.536;2023-08-01T09:31:32;15.90;99.90
52034;DHT22;38045;52.988;6.536;2023-08-01T09:34:02;15.90;99.90
52034;DHT22;38045;52.988;6.536;2023-08-01T09:36:34;15.90;99.90
52034;DHT22;38045;52.988;6.536;2023-08-01T09:39:02;15.90;99.90
52034;DHT22;38045;52.988;6.536;2023-08-01T09:41:29;15.90;99.90
52034;DHT22;38045;52.988;6.536;2023-08-01T09:43:56;16.10;99.90
52034;DHT22;38045;52.988;6.536;2023-08-01T09:46:22;16.10;99.90
52034;DHT22;38045;52.988;6.536;2023-08-01T09:48:48;16.20;99.90
52034;DHT22;38045;52.988;6.536;2023-08-01T09:51:15;16.20;99.90
52034;DHT22;38045;52.988;6.536;2023-08-01T09:53:54;16.30;99.90
52034;DHT22;38045;52.988;6.536;2023-08-01T09:56:25;16.30;99.90
52034;DHT22;38045;52.988;6.536;2023-08-01T09:58:52;16.40;99.90
52034;DHT22;38045;52.988;6.536;2023-08-01T10:01:20;16.70;99.90
52034;DHT22;38045;52.988;6.536;2023-08-01T10:03:48;16.80;99.90
52034;DHT22;38045;52.988;6.536;2023-08-01T10:06:18;16.90;99.90
52034;DHT22;38045;52.988;6.536;2023-08-01T10:08:45;17.00;99.90
52034;DHT22;38045;52.988;6.536;2023-08-01T10:11:16;16.90;99.90
52034;DHT22;38045;52.988;6.536;2023-08-01T10:13:43;16.90;99.90
52034;DHT22;38045;52.988;6.536;2023-08-01T10:16:10;16.80;99.90
52034;DHT22;38045;52.988;6.536;2023-08-01T10:18:37;16.90;99.90
52034;DHT22;38045;52.988;6.536;2023-08-01T10:21:05;16.90;99.90
52034;DHT22;38045;52.988;6.536;2023-08-01T10:23:32;16.90;99.90
52034;DHT22;38045;52.988;6.536;2023-08-01T10:26:00;17.10;99.90
52034;DHT22;38045;52.988;6.536;2023-08-01T10:28:36;17.40;99.90
52034;DHT22;38045;52.988;6.536;2023-08-01T10:31:13;17.50;99.90
52034;DHT22;38045;52.988;6.536;2023-08-01T10:33:41;17.40;99.90
52034;DHT22;38045;52.988;6.536;2023-08-01T10:36:23;17.30;99.90
52034;DHT22;38045;52.988;6.536;2023-08-01T10:38:50;17.10;99.90
52034;DHT22;38045;52.988;6.536;2023-08-01T10:41:30;17.00;99.90
52034;DHT22;38045;52.988;6.536;2023-08-01T10:44:14;16.80;99.90
52034;DHT22;38045;52.988;6.536;2023-08-01T10:46:51;16.80;99.90
52034;DHT22;38045;52.988;6.536;2023-08-01T10:49:18;16.80;99.90
52034;DHT22;38045;52.988;6.536;2023-08-01T10:51:44;16.70;99.90
52034;DHT22;38045;52.988;6.536;2023-08-01T10:54:21;16.80;99.90
52034;DHT22;38045;52.988;6.536;2023-08-01T10:56:49;16.90;99.90
52034;DHT22;38045;52.988;6.536;2023-08-01T10:59:15;17.20;99.90
52034;DHT22;38045;52.988;6.536;2023-08-01T11:01:49;17.50;99.90
52034;DHT22;38045;52.988;6.536;2023-08-01T11:04:20;17.70;99.90
52034;DHT22;38045;52.988;6.536;2023-08-01T11:06:53;17.80;99.90
52034;DHT22;38045;52.988;6.536;2023-08-01T11:09:26;17.90;99.90
52034;DHT22;38045;52.988;6.536;2023-08-01T11:11:54;18.00;99.90
52034;DHT22;38045;52.988;6.536;2023-08-01T11:14:22;18.10;99.90
52034;DHT22;38045;52.988;6.536;2023-08-01T11:16:48;18.10;99.90
52034;DHT22;38045;52.988;6.536;2023-08-01T11:19:25;18.10;99.90
52034;DHT22;38045;52.988;6.536;2023-08-01T11:21:51;17.80;99.90
52034;DHT22;38045;52.988;6.536;2023-08-01T11:24:18;17.70;99.90
52034;DHT22;38045;52.988;6.536;2023-08-01T11:26:48;17.70;99.90
52034;DHT22;38045;52.988;6.536;2023-08-01T11:29:15;17.70;99.90
52034;DHT22;38045;52.988;6.536;2023-08-01T11:31:51;17.90;99.90
52034;DHT22;38045;52.988;6.536;2023-08-01T11:34:18;18.00;99.90
52034;DHT22;38045;52.988;6.536;2023-08-01T11:36:44;18.20;99.90
52034;DHT22;38045;52.988;6.536;2023-08-01T11:39:12;18.30;99.90
52034;DHT22;38045;52.988;6.536;2023-08-01T11:41:38;18.30;99.90
52034;DHT22;38045;52.988;6.536;2023-08-01T11:44:04;18.30;99.90
52034;DHT22;38045;52.988;6.536;2023-08-01T11:46:34;18.20;99.90
52034;DHT22;38045;52.988;6.536;2023-08-01T11:49:01;18.00;99.90
52034;DHT22;38045;52.988;6.536;2023-08-01T11:51:28;17.90;99.90
52034;DHT22;38045;52.988;6.536;2023-08-01T11:54:03;18.00;99.90
52034;DHT22;38045;52.988;6.536;2023-08-01T11:56:30;18.10;99.90
52034;DHT22;38045;52.988;6.536;2023-08-01T11:58:56;18.20;99.90
52034;DHT22;38045;52.988;6.536;2023-08-01T12:01:22;18.10;99.90
52034;DHT22;38045;52.988;6.536;2023-08-01T12:03:55;18.10;99.90
52034;DHT22;38045;52.988;6.536;2023-08-01T12:06:22;18.10;99.90
52034;DHT22;38045;52.988;6.536;2023-08-01T12:08:50;18.00;99.90
52034;DHT22;38045;52.988;6.536;2023-08-01T12:11:27;18.20;99.90
52034;DHT22;38045;52.988;6.536;2023-08-01T12:14:08;18.40;99.90
52034;DHT22;38045;52.988;6.536;2023-08-01T12:16:38;18.40;99.90
52034;DHT22;38045;52.988;6.536;2023-08-01T12:19:05;18.40;99.90
52034;DHT22;38045;52.988;6.536;2023-08-01T12:21:32;18.50;99.90
52034;DHT22;38045;52.988;6.536;2023-08-01T12:23:58;18.60;99.90
52034;DHT22;38045;52.988;6.536;2023-08-01T12:26:24;18.70;99.90
52034;DHT22;38045;52.988;6.536;2023-08-01T12:28:50;18.70;99.90
52034;DHT22;38045;52.988;6.536;2023-08-01T12:31:19;18.80;99.90
52034;DHT22;38045;52.988;6.536;2023-08-01T12:33:46;18.80;99.90
52034;DHT22;38045;52.988;6.536;2023-08-01T12:36:16;18.90;99.90
52034;DHT22;38045;52.988;6.536;2023-08-01T12:38:41;18.70;99.90
52034;DHT22;38045;52.988;6.536;2023-08-01T12:41:07;18.60;99.90
52034;DHT22;38045;52.988;6.536;2023-08-01T12:43:33;18.60;99.90
52034;DHT22;38045;52.988;6.536;2023-08-01T12:45:59;18.60;99.90
52034;DHT22;38045;52.988;6.536;2023-08-01T12:48:28;18.80;99.90
52034;DHT22;38045;52.988;6.536;2023-08-01T12:50:53;18.90;99.90
52034;DHT22;38045;52.988;6.536;2023-08-01T12:53:20;18.90;99.90
52034;DHT22;38045;52.988;6.536;2023-08-01T12:55:47;19.00;99.90
52034;DHT22;38045;52.988;6.536;2023-08-01T12:58:14;19.30;99.90
52034;DHT22;38045;52.988;6.536;2023-08-01T13:00:40;19.40;99.90
52034;DHT22;38045;52.988;6.536;2023-08-01T13:03:06;19.60;99.90
52034;DHT22;38045;52.988;6.536;2023-08-01T13:05:37;19.80;99.90
52034;DHT22;38045;52.988;6.536;2023-08-01T13:08:03;19.80;99.90
52034;DHT22;38045;52.988;6.536;2023-08-01T13:10:36;19.70;99.90
52034;DHT22;38045;52.988;6.536;2023-08-01T13:13:02;19.50;99.90
52034;DHT22;38045;52.988;6.536;2023-08-01T13:15:29;19.50;99.90
52034;DHT22;38045;52.988;6.536;2023-08-01T13:17:55;19.50;99.90
52034;DHT22;38045;52.988;6.536;2023-08-01T13:20:21;19.60;99.90
52034;DHT22;38045;52.988;6.536;2023-08-01T13:22:49;19.60;99.90
52034;DHT22;38045;52.988;6.536;2023-08-01T13:25:14;19.50;99.90
52034;DHT22;38045;52.988;6.536;2023-08-01T13:27:41;19.40;99.90
52034;DHT22;38045;52.988;6.536;2023-08-01T13:30:07;19.40;99.90
52034;DHT22;38045;52.988;6.536;2023-08-01T13:32:33;19.40;99.90
52034;DHT22;38045;52.988;6.536;2023-08-01T13:34:59;19.40;99.90
52034;DHT22;38045;52.988;6.536;2023-08-01T13:37:25;19.30;99.90
52034;DHT22;38045;52.988;6.536;2023-08-01T13:39:50;19.30;99.90
52034;DHT22;38045;52.988;6.536;2023-08-01T13:42:16;19.40;99.90
52034;DHT22;38045;52.988;6.536;2023-08-01T13:44:41;19.60;99.90
52034;DHT22;38045;52.988;6.536;2023-08-01T13:47:07;19.70;99.90
52034;DHT22;38045;52.988;6.536;2023-08-01T13:49:33;19.50;99.90
52034;DHT22;38045;52.988;6.536;2023-08-01T13:51:59;19.30;99.90
52034;DHT22;38045;52.988;6.536;2023-08-01T13:54:25;19.10;99.90
52034;DHT22;38045;52.988;6.536;2023-08-01T13:56:51;18.70;99.90
52034;DHT22;38045;52.988;6.536;2023-08-01T13:59:18;18.30;99.90
52034;DHT22;38045;52.988;6.536;2023-08-01T14:01:44;17.90;99.90
52034;DHT22;38045;52.988;6.536;2023-08-01T14:04:10;17.60;99.90
52034;DHT22;38045;52.988;6.536;2023-08-01T14:06:36;17.50;99.90
52034;DHT22;38045;52.988;6.536;2023-08-01T14:09:01;17.50;99.90
52034;DHT22;38045;52.988;6.536;2023-08-01T14:11:28;17.50;99.90
52034;DHT22;38045;52.988;6.536;2023-08-01T14:13:53;17.60;99.90
52034;DHT22;38045;52.988;6.536;2023-08-01T14:16:19;17.70;99.90
52034;DHT22;38045;52.988;6.536;2023-08-01T14:18:44;17.80;99.90
52034;DHT22;38045;52.988;6.536;2023-08-01T14:21:10;18.10;99.90
52034;DHT22;38045;52.988;6.536;2023-08-01T14:23:36;18.40;99.90
52034;DHT22;38045;52.988;6.536;2023-08-01T14:26:03;18.60;99.90
52034;DHT22;38045;52.988;6.536;2023-08-01T14:28:29;18.70;99.90
52034;DHT22;38045;52.988;6.536;2023-08-01T14:30:55;18.70;99.90
52034;DHT22;38045;52.988;6.536;2023-08-01T14:33:20;18.80;99.90
52034;DHT22;38045;52.988;6.536;2023-08-01T14:35:46;18.90;99.90
52034;DHT22;38045;52.988;6.536;2023-08-01T14:38:12;18.90;99.90
52034;DHT22;38045;52.988;6.536;2023-08-01T14:40:37;18.90;99.90
52034;DHT22;38045;52.988;6.536;2023-08-01T14:43:04;18.90;99.90
52034;DHT22;38045;52.988;6.536;2023-08-01T14:45:30;19.00;99.90
52034;DHT22;38045;52.988;6.536;2023-08-01T14:47:56;19.00;99.90
52034;DHT22;38045;52.988;6.536;2023-08-01T14:50:21;18.90;99.90
52034;DHT22;38045;52.988;6.536;2023-08-01T14:52:47;18.90;99.90
52034;DHT22;38045;52.988;6.536;2023-08-01T14:55:13;18.80;99.90
52034;DHT22;38045;52.988;6.536;2023-08-01T14:57:38;18.90;99.90
52034;DHT22;38045;52.988;6.536;2023-08-01T15:00:04;19.00;99.90
52034;DHT22;38045;52.988;6.536;2023-08-01T15:02:30;19.30;99.90
52034;DHT22;38045;52.988;6.536;2023-08-01T15:04:56;19.30;99.90
52034;DHT22;38045;52.988;6.536;2023-08-01T15:07:23;19.20;99.90
52034;DHT22;38045;52.988;6.536;2023-08-01T15:09:50;19.10;99.90
52034;DHT22;38045;52.988;6.536;2023-08-01T15:12:16;18.90;99.90
52034;DHT22;38045;52.988;6.536;2023-08-01T15:14:42;18.80;99.90
52034;DHT22;38045;52.988;6.536;2023-08-01T15:17:08;18.60;99.90
52034;DHT22;38045;52.988;6.536;2023-08-01T15:19:35;18.50;99.90
52034;DHT22;38045;52.988;6.536;2023-08-01T15:22:01;18.50;99.90
52034;DHT22;38045;52.988;6.536;2023-08-01T15:24:29;18.50;99.90
52034;DHT22;38045;52.988;6.536;2023-08-01T15:26:55;18.50;99.90
52034;DHT22;38045;52.988;6.536;2023-08-01T15:29:21;18.60;99.90